createdAt,value
2017-06-11T00:00:51.380Z,39.86
2017-06-11T00:02:01.296Z,39.95
2017-06-11T00:03:10.914Z,39.95
2017-06-11T00:04:21.133Z,39.95
2017-06-11T00:05:31.047Z,39.86
2017-06-11T00:06:40.651Z,39.86
2017-06-11T00:07:50.263Z,39.86
2017-06-11T00:08:59.908Z,40.05
2017-06-11T00:10:09.813Z,39.86
2017-06-11T00:11:19.413Z,40.05
2017-06-11T00:12:28.116Z,39.76
2017-06-11T00:13:38.353Z,39.95
2017-06-11T00:14:47.957Z,39.86
2017-06-11T00:15:58.192Z,39.76
2017-06-11T00:17:08.425Z,40.15
2017-06-11T00:18:18.646Z,40.34
2017-06-11T00:19:28.556Z,40.63
2017-06-11T00:20:37.549Z,40.73
2017-06-11T00:21:47.461Z,40.63
2017-06-11T00:22:57.364Z,40.44
2017-06-11T00:24:07.346Z,40.44
2017-06-11T00:25:17.285Z,40.44
2017-06-11T00:26:27.205Z,40.53
2017-06-11T00:27:36.809Z,40.44
2017-06-11T00:28:46.420Z,40.53
2017-06-11T00:29:56.645Z,40.34
2017-06-11T00:31:06.880Z,40.44
2017-06-11T00:32:16.489Z,40.32
2017-06-11T00:33:25.819Z,40.25
2017-06-11T00:34:36.076Z,40.34
2017-06-11T00:35:46.314Z,40.34
2017-06-11T00:36:56.234Z,40.32
2017-06-11T00:38:06.468Z,40.83
2017-06-11T00:39:15.775Z,40.81
2017-06-11T00:40:25.700Z,40.81
2017-06-11T00:41:35.345Z,40.73
2017-06-11T00:42:45.332Z,40.83
2017-06-11T00:43:55.544Z,40.81
2017-06-11T00:45:05.145Z,40.81
2017-06-11T00:46:15.379Z,40.63
2017-06-11T00:47:24.997Z,40.61
2017-06-11T00:48:35.219Z,40.61
2017-06-11T00:49:45.829Z,40.73
2017-06-11T00:50:55.486Z,40.63
2017-06-11T00:52:05.112Z,40.83
2017-06-11T00:53:15.040Z,40.71
2017-06-11T00:54:24.987Z,40.71
2017-06-11T00:55:34.903Z,40.73
2017-06-11T00:56:45.135Z,40.71
2017-06-11T00:57:54.742Z,40.71
2017-06-11T00:59:04.648Z,40.81
2017-06-11T01:00:14.864Z,40.61
2017-06-11T01:01:24.797Z,40.71
2017-06-11T01:02:34.404Z,40.71
2017-06-11T01:03:44.328Z,40.73
2017-06-11T01:04:53.624Z,40.71
2017-06-11T01:06:03.533Z,40.73
2017-06-11T01:07:13.754Z,40.71
2017-06-11T01:08:23.679Z,40.83
2017-06-11T01:09:33.592Z,40.61
2017-06-11T01:10:43.501Z,40.71
2017-06-11T01:11:53.121Z,40.71
2017-06-11T01:13:02.749Z,40.9
2017-06-11T01:14:12.988Z,40.81
2017-06-11T01:15:23.225Z,40.9
2017-06-11T01:16:33.155Z,40.81
2017-06-11T01:17:42.452Z,40.81
2017-06-11T01:18:52.393Z,40.81
2017-06-11T01:20:02.003Z,40.9
2017-06-11T01:21:11.932Z,40.9
2017-06-11T01:22:22.163Z,41
2017-06-11T01:23:31.800Z,41
2017-06-11T01:24:41.734Z,40.9
2017-06-11T01:25:51.034Z,41
2017-06-11T01:27:01.249Z,41.09
2017-06-11T01:28:11.170Z,41.09
2017-06-11T01:29:21.073Z,41.29
2017-06-11T01:30:31.033Z,41.29
2017-06-11T01:31:41.257Z,41.19
2017-06-11T01:32:51.187Z,41.19
2017-06-11T01:34:01.091Z,41.29
2017-06-11T01:35:11.318Z,41.39
2017-06-11T01:36:20.927Z,41.48
2017-06-11T01:37:31.156Z,41.46
2017-06-11T01:38:41.407Z,41.29
2017-06-11T01:39:51.663Z,41.39
2017-06-11T01:41:01.628Z,41.48
2017-06-11T01:42:11.532Z,41.36
2017-06-11T01:43:21.759Z,41.48
2017-06-11T01:44:31.679Z,41.27
2017-06-11T01:45:41.311Z,41.48
2017-06-11T01:46:51.250Z,41.46
2017-06-11T01:48:01.154Z,41.66
2017-06-11T01:49:10.756Z,41.85
2017-06-11T01:50:20.698Z,41.85
2017-06-11T01:51:30.310Z,41.94
2017-06-11T01:52:39.924Z,41.85
2017-06-11T01:53:49.835Z,41.85
2017-06-11T01:54:59.756Z,41.94
2017-06-11T01:56:09.669Z,41.75
2017-06-11T01:57:19.288Z,41.75
2017-06-11T01:58:29.542Z,41.75
2017-06-11T01:59:39.481Z,41.75
2017-06-11T02:00:49.430Z,41.66
2017-06-11T02:01:59.391Z,41.75
2017-06-11T02:03:09.624Z,41.94
2017-06-11T02:04:19.627Z,42.04
2017-06-11T02:05:29.290Z,42.14
2017-06-11T02:06:38.890Z,42.04
2017-06-11T02:07:49.102Z,41.85
2017-06-11T02:08:59.030Z,41.85
2017-06-11T02:10:09.267Z,41.85
2017-06-11T02:11:19.518Z,41.75
2017-06-11T02:12:29.753Z,41.75
2017-06-11T02:13:39.376Z,41.94
2017-06-11T02:14:49.309Z,42.24
2017-06-11T02:15:58.916Z,41.75
2017-06-11T02:17:09.144Z,41.75
2017-06-11T02:18:18.752Z,42.04
2017-06-11T02:19:28.666Z,42.43
2017-06-11T02:20:38.576Z,41.85
2017-06-11T02:21:48.502Z,41.75
2017-06-11T02:22:58.104Z,41.85
2017-06-11T02:24:07.410Z,42.14
2017-06-11T02:25:17.345Z,42.14
2017-06-11T02:26:26.662Z,42.04
2017-06-11T02:27:36.598Z,42.24
2017-06-11T02:28:46.517Z,41.85
2017-06-11T02:29:56.417Z,42.04
2017-06-11T02:31:06.321Z,42.14
2017-06-11T02:32:15.948Z,42.14
2017-06-11T02:33:25.556Z,42.14
2017-06-11T02:34:35.462Z,42.33
2017-06-11T02:35:45.412Z,42.33
2017-06-11T02:36:55.619Z,42.33
2017-06-11T02:38:05.854Z,42.04
2017-06-11T02:39:16.073Z,41.94
2017-06-11T02:40:26.300Z,42.02
2017-06-11T02:41:35.910Z,42.04
2017-06-11T02:42:45.820Z,42.04
2017-06-11T02:43:55.724Z,42.24
2017-06-11T02:45:05.033Z,42.24
2017-06-11T02:46:14.951Z,42.12
2017-06-11T02:47:24.562Z,42.21
2017-06-11T02:48:34.785Z,42.14
2017-06-11T02:49:44.387Z,42.04
2017-06-11T02:50:54.306Z,42.04
2017-06-11T02:52:03.917Z,42.24
2017-06-11T02:53:13.533Z,42.12
2017-06-11T02:54:23.476Z,42.21
2017-06-11T02:55:33.120Z,42.24
2017-06-11T02:56:43.347Z,42.02
2017-06-11T02:57:53.573Z,42.14
2017-06-11T02:59:03.795Z,42.04
2017-06-11T03:00:13.699Z,42.12
2017-06-11T03:01:23.608Z,42.31
2017-06-11T03:02:33.835Z,42.41
2017-06-11T03:03:43.757Z,42.31
2017-06-11T03:04:54.003Z,42.41
2017-06-11T03:06:03.594Z,42.41
2017-06-11T03:07:13.812Z,42.31
2017-06-11T03:08:23.729Z,42.41
2017-06-11T03:09:33.653Z,42.02
2017-06-11T03:10:43.553Z,41.94
2017-06-11T03:11:53.781Z,42.6
2017-06-11T03:13:03.692Z,42.31
2017-06-11T03:14:13.626Z,42.31
2017-06-11T03:15:23.543Z,42.41
2017-06-11T03:16:33.457Z,42.31
2017-06-11T03:17:43.369Z,42.41
2017-06-11T03:18:53.279Z,42.21
2017-06-11T03:20:02.877Z,42.21
2017-06-11T03:21:12.827Z,41.93
2017-06-11T03:22:22.735Z,42.02
2017-06-11T03:23:32.644Z,42.21
2017-06-11T03:24:42.268Z,42.12
2017-06-11T03:25:51.568Z,41.93
2017-06-11T03:27:01.479Z,42.31
2017-06-11T03:28:11.381Z,42.31
2017-06-11T03:29:21.613Z,42.41
2017-06-11T03:30:31.220Z,42.5
2017-06-11T03:31:40.827Z,42.5
2017-06-11T03:32:50.766Z,42.41
2017-06-11T03:34:00.978Z,42.41
2017-06-11T03:35:11.215Z,42.5
2017-06-11T03:36:21.120Z,42.31
2017-06-11T03:37:30.109Z,42.5
2017-06-11T03:38:40.337Z,42.5
2017-06-11T03:39:50.240Z,42.5
2017-06-11T03:41:00.172Z,42.31
2017-06-11T03:42:10.083Z,42.41
2017-06-11T03:43:19.985Z,42.31
2017-06-11T03:44:29.935Z,42.31
2017-06-11T03:45:40.173Z,42.31
2017-06-11T03:46:50.079Z,42.21
2017-06-11T03:48:00.334Z,42.02
2017-06-11T03:49:09.623Z,42.31
2017-06-11T03:50:19.241Z,42.41
2017-06-11T03:51:29.460Z,42.41
2017-06-11T03:52:39.068Z,42.5
2017-06-11T03:53:48.656Z,42.31
2017-06-11T03:54:58.560Z,42.5
2017-06-11T03:56:08.481Z,42.5
2017-06-11T03:57:18.376Z,42.5
2017-06-11T03:58:28.289Z,42.31
2017-06-11T03:59:37.909Z,42.5
2017-06-11T04:00:48.126Z,42.41
2017-06-11T04:01:57.732Z,42.31
2017-06-11T04:03:07.956Z,42.31
2017-06-11T04:04:18.168Z,42.41
2017-06-11T04:05:28.083Z,42.5
2017-06-11T04:06:37.689Z,42.41
2017-06-11T04:07:47.301Z,42.02
2017-06-11T04:08:57.536Z,42.21
2017-06-11T04:10:07.144Z,41.93
2017-06-11T04:11:17.370Z,42.41
2017-06-11T04:12:27.595Z,42.41
2017-06-11T04:13:37.826Z,42.41
2017-06-11T04:14:48.057Z,42.43
2017-06-11T04:15:57.661Z,42.31
2017-06-11T04:17:07.280Z,42.43
2017-06-11T04:18:16.573Z,42.24
2017-06-11T04:19:26.788Z,42.14
2017-06-11T04:20:36.716Z,42.24
2017-06-11T04:21:46.935Z,42.24
2017-06-11T04:22:56.846Z,42.04
2017-06-11T04:24:06.754Z,42.04
2017-06-11T04:25:16.359Z,42.04
2017-06-11T04:26:26.277Z,42.14
2017-06-11T04:27:36.191Z,42.14
2017-06-11T04:28:46.093Z,41.94
2017-06-11T04:29:55.997Z,41.94
2017-06-11T04:31:06.213Z,42.14
2017-06-11T04:32:16.462Z,42.14
2017-06-11T04:33:26.371Z,41.94
2017-06-11T04:34:36.282Z,41.94
2017-06-11T04:35:45.896Z,42.24
2017-06-11T04:36:56.117Z,42.04
2017-06-11T04:38:06.034Z,41.94
2017-06-11T04:39:15.946Z,42.14
2017-06-11T04:40:25.548Z,42.04
2017-06-11T04:41:35.771Z,42.04
2017-06-11T04:42:46.016Z,42.14
2017-06-11T04:43:55.639Z,42.24
2017-06-11T04:45:05.244Z,42.14
2017-06-11T04:46:15.154Z,42.14
2017-06-11T04:47:25.050Z,42.04
2017-06-11T04:48:34.968Z,42.04
2017-06-11T04:49:44.890Z,42.04
2017-06-11T04:50:55.110Z,42.04
2017-06-11T04:52:05.033Z,42.24
2017-06-11T04:53:14.952Z,42.04
2017-06-11T04:54:25.164Z,41.94
2017-06-11T04:55:34.770Z,42.24
2017-06-11T04:56:44.367Z,42.04
2017-06-11T04:57:54.310Z,42.04
2017-06-11T04:59:04.664Z,42.04
2017-06-11T05:00:14.408Z,42.24
2017-06-11T05:01:24.371Z,42.33
2017-06-11T05:02:34.347Z,42.24
2017-06-11T05:03:43.954Z,42.04
2017-06-11T05:04:53.746Z,42.43
2017-06-11T05:06:03.832Z,41.66
2017-06-11T05:07:14.099Z,41.94
2017-06-11T05:08:24.720Z,41.75
2017-06-11T05:09:35.104Z,42.04
2017-06-11T05:10:45.423Z,41.94
2017-06-11T05:11:55.047Z,42.04
2017-06-11T05:13:05.289Z,41.94
2017-06-11T05:14:15.616Z,42.14
2017-06-11T05:15:25.911Z,41.77
2017-06-11T05:16:35.835Z,41.94
2017-06-11T05:17:45.836Z,41.75
2017-06-11T05:18:55.468Z,41.87
2017-06-11T05:20:05.076Z,41.77
2017-06-11T05:21:14.991Z,42.07
2017-06-11T05:22:24.915Z,41.97
2017-06-11T05:23:35.139Z,41.67
2017-06-11T05:24:45.043Z,41.77
2017-06-11T05:25:54.965Z,41.77
2017-06-11T05:27:04.882Z,41.77
2017-06-11T05:28:15.123Z,42.16
2017-06-11T05:29:25.572Z,42.16
2017-06-11T05:30:35.181Z,41.48
2017-06-11T05:31:45.422Z,41.48
2017-06-11T05:32:55.737Z,41.48
2017-06-11T05:34:05.353Z,41.39
2017-06-11T05:35:16.047Z,41.39
2017-06-11T05:36:25.372Z,41.39
2017-06-11T05:37:34.685Z,41.21
2017-06-11T05:38:45.567Z,41
2017-06-11T05:39:55.499Z,41.02
2017-06-11T05:41:06.179Z,41.11
2017-06-11T05:42:16.983Z,41.02
2017-06-11T05:43:27.366Z,40.73
2017-06-11T05:44:37.300Z,40.83
2017-06-11T05:45:47.209Z,40.44
2017-06-11T05:46:57.129Z,40.17
2017-06-11T05:48:07.357Z,39.69
2017-06-11T05:49:16.660Z,39.22
2017-06-11T05:50:26.878Z,38.64
2017-06-11T05:51:37.101Z,38.46
2017-06-11T05:52:46.699Z,38.17
2017-06-11T05:53:56.617Z,38
2017-06-11T05:55:06.538Z,37.81
2017-06-11T05:56:16.448Z,37.41
2017-06-11T05:57:26.373Z,37.43
2017-06-11T05:58:36.598Z,36.76
2017-06-11T05:59:46.500Z,36.48
2017-06-11T06:00:56.117Z,36.02
2017-06-11T06:02:05.721Z,35.63
2017-06-11T06:03:15.934Z,35.43
2017-06-11T06:04:26.178Z,35.35
2017-06-11T06:05:36.092Z,34.79
2017-06-11T06:06:45.704Z,34.32
2017-06-11T06:07:55.319Z,34.22
2017-06-11T06:09:05.242Z,33.95
2017-06-11T06:10:15.166Z,33.75
2017-06-11T06:11:24.766Z,33.67
2017-06-11T06:12:34.707Z,33.18
2017-06-11T06:13:44.948Z,32.91
2017-06-11T06:14:54.594Z,32.43
2017-06-11T06:16:03.921Z,32.24
2017-06-11T06:17:14.141Z,32.06
2017-06-11T06:18:24.355Z,31.96
2017-06-11T06:19:34.558Z,31.79
2017-06-11T06:20:44.460Z,31.49
2017-06-11T06:21:54.075Z,31.51
2017-06-11T06:23:03.991Z,31.51
2017-06-11T06:24:13.908Z,31.41
2017-06-11T06:25:24.129Z,31.22
2017-06-11T06:26:34.060Z,30.84
2017-06-11T06:27:43.666Z,30.96
2017-06-11T06:28:53.908Z,30.37
2017-06-11T06:30:04.123Z,30.66
2017-06-11T06:31:14.042Z,30.19
2017-06-11T06:32:23.654Z,29.99
2017-06-11T06:33:33.890Z,30.1
2017-06-11T06:34:43.813Z,29.52
2017-06-11T06:35:54.020Z,29.93
2017-06-11T06:37:03.951Z,29.44
2017-06-11T06:38:13.856Z,29.25
2017-06-11T06:39:23.464Z,28.96
2017-06-11T06:40:33.083Z,29.17
2017-06-11T06:41:42.701Z,29.07
2017-06-11T06:42:52.306Z,29.08
2017-06-11T06:44:02.225Z,29.17
2017-06-11T06:45:12.143Z,28.99
2017-06-11T06:46:22.054Z,28.89
2017-06-11T06:47:31.985Z,29.08
2017-06-11T06:48:41.914Z,29.38
2017-06-11T06:49:52.147Z,29.38
2017-06-11T06:51:02.377Z,29.75
2017-06-11T06:52:12.601Z,29.56
2017-06-11T06:53:22.534Z,30.23
2017-06-11T06:54:32.778Z,30.23
2017-06-11T06:55:42.703Z,30.43
2017-06-11T06:56:52.317Z,30.23
2017-06-11T06:58:02.558Z,30.22
2017-06-11T06:59:12.494Z,30.33
2017-06-11T07:00:22.733Z,30.23
2017-06-11T07:01:32.661Z,29.84
2017-06-11T07:02:42.279Z,29.66
2017-06-11T07:03:52.220Z,29.18
2017-06-11T07:05:01.537Z,28.99
2017-06-11T07:06:11.445Z,28.91
2017-06-11T07:07:21.357Z,28.71
2017-06-11T07:08:31.281Z,28.23
2017-06-11T07:09:41.199Z,28.33
2017-06-11T07:10:50.503Z,28.23
2017-06-11T07:12:00.464Z,28.63
2017-06-11T07:13:10.712Z,28.72
2017-06-11T07:14:20.953Z,28.63
2017-06-11T07:15:30.568Z,28.63
2017-06-11T07:16:40.185Z,28.63
2017-06-11T07:17:50.102Z,28.82
2017-06-11T07:19:00.016Z,29.21
2017-06-11T07:20:09.631Z,29.39
2017-06-11T07:21:19.539Z,29.79
2017-06-11T07:22:29.528Z,29.58
2017-06-11T07:23:39.455Z,30.36
2017-06-11T07:24:49.683Z,30.25
2017-06-11T07:25:59.614Z,30.54
2017-06-11T07:27:09.551Z,30.82
2017-06-11T07:28:19.469Z,31.21
2017-06-11T07:29:29.396Z,31.59
2017-06-11T07:30:39.002Z,31.68
2017-06-11T07:31:48.602Z,31.57
2017-06-11T07:32:58.865Z,31.87
2017-06-11T07:34:08.778Z,32.06
2017-06-11T07:35:18.093Z,31.95
2017-06-11T07:36:28.331Z,32.06
2017-06-11T07:37:37.931Z,31.75
2017-06-11T07:38:47.839Z,31.87
2017-06-11T07:39:57.813Z,31.57
2017-06-11T07:41:08.072Z,31.57
2017-06-11T07:42:17.731Z,31.38
2017-06-11T07:43:28.001Z,31.39
2017-06-11T07:44:37.303Z,31.1
2017-06-11T07:45:47.285Z,31.1
2017-06-11T07:46:57.253Z,31.1
2017-06-11T07:48:07.523Z,30.91
2017-06-11T07:49:17.529Z,30.43
2017-06-11T07:50:27.205Z,30.72
2017-06-11T07:51:37.507Z,30.33
2017-06-11T07:52:46.882Z,30.33
2017-06-11T07:53:56.851Z,30.25
2017-06-11T07:55:07.122Z,29.66
2017-06-11T07:56:17.390Z,29.58
2017-06-11T07:57:27.097Z,28.91
2017-06-11T07:58:37.447Z,28.23
2017-06-11T07:59:47.727Z,28.05
2017-06-11T08:00:57.441Z,27.77
2017-06-11T08:02:07.083Z,27.87
2017-06-11T08:03:16.412Z,27.29
2017-06-11T08:04:25.773Z,27.29
2017-06-11T08:05:36.070Z,27.5
2017-06-11T08:06:46.053Z,27.49
2017-06-11T08:07:56.326Z,27.39
2017-06-11T08:09:06.307Z,27
2017-06-11T08:10:15.973Z,26.81
2017-06-11T08:11:26.248Z,26.45
2017-06-11T08:12:36.320Z,26.05
2017-06-11T08:13:46.280Z,25.87
2017-06-11T08:14:56.307Z,25.77
2017-06-11T08:16:06.577Z,25.67
2017-06-11T08:17:16.548Z,25.09
2017-06-11T08:18:26.541Z,24.9
2017-06-11T08:19:36.843Z,25.01
2017-06-11T08:20:46.979Z,24.73
2017-06-11T08:21:57.014Z,24.33
2017-06-11T08:23:07.379Z,24.63
2017-06-11T08:24:17.026Z,24.44
2017-06-11T08:25:27.001Z,25.03
2017-06-11T08:26:37.702Z,25.02
2017-06-11T08:27:47.958Z,24.34
2017-06-11T08:28:57.281Z,24.15
2017-06-11T08:30:06.970Z,23.96
2017-06-11T08:31:16.333Z,23.68
2017-06-11T08:32:26.284Z,23.69
2017-06-11T08:33:35.921Z,23.59
2017-06-11T08:34:45.710Z,23.79
2017-06-11T08:35:55.656Z,23.88
2017-06-11T08:37:05.903Z,23.69
2017-06-11T08:38:15.843Z,23.79
2017-06-11T08:39:25.828Z,24.28
2017-06-11T08:40:35.799Z,24.76
2017-06-11T08:41:45.731Z,25.34
2017-06-11T08:42:55.374Z,26.1
2017-06-11T08:44:05.326Z,26.39
2017-06-11T08:45:15.830Z,27.06
2017-06-11T08:46:26.064Z,27.64
2017-06-11T08:47:36.390Z,28.12
2017-06-11T08:48:46.318Z,28.3
2017-06-11T08:49:56.552Z,29.17
2017-06-11T08:51:06.496Z,29.45
2017-06-11T08:52:16.737Z,29.83
2017-06-11T08:53:26.680Z,30.21
2017-06-11T08:54:35.686Z,30.5
2017-06-11T08:55:45.627Z,30.49
2017-06-11T08:56:55.592Z,31.27
2017-06-11T08:58:05.228Z,31.65
2017-06-11T08:59:15.496Z,31.73
2017-06-11T09:00:26.452Z,32.03
2017-06-11T09:01:36.648Z,32.4
2017-06-11T09:02:46.285Z,32.58
2017-06-11T09:03:55.934Z,32.78
2017-06-11T09:05:06.566Z,33.15
2017-06-11T09:06:15.917Z,33.64
2017-06-11T09:07:25.860Z,34.11
2017-06-11T09:08:36.083Z,33.92
2017-06-11T09:09:46.003Z,34.09
2017-06-11T09:10:55.919Z,34.88
2017-06-11T09:12:05.847Z,34.86
2017-06-11T09:13:15.453Z,34.67
2017-06-11T09:14:25.678Z,34.86
2017-06-11T09:15:35.615Z,35.24
2017-06-11T09:16:45.267Z,35.43
2017-06-11T09:17:55.207Z,35.41
2017-06-11T09:19:05.435Z,35.71
2017-06-11T09:20:15.358Z,36
2017-06-11T09:21:25.636Z,36.18
2017-06-11T09:22:35.567Z,36.27
2017-06-11T09:23:45.197Z,36.65
2017-06-11T09:24:55.419Z,36.94
2017-06-11T09:26:05.039Z,37.04
2017-06-11T09:27:15.270Z,36.82
2017-06-11T09:28:24.886Z,37.21
2017-06-11T09:29:35.150Z,37.41
2017-06-11T09:30:45.803Z,37.48
2017-06-11T09:31:56.018Z,37.48
2017-06-11T09:33:05.329Z,37.58
2017-06-11T09:34:15.265Z,37.87
2017-06-11T09:35:25.222Z,37.97
2017-06-11T09:36:35.143Z,37.85
2017-06-11T09:37:45.414Z,37.95
2017-06-11T09:38:55.345Z,38.13
2017-06-11T09:40:04.958Z,38.03
2017-06-11T09:41:15.202Z,38.05
2017-06-11T09:42:25.820Z,38.13
2017-06-11T09:43:35.795Z,38.32
2017-06-11T09:44:45.427Z,38.42
2017-06-11T09:45:55.679Z,38.81
2017-06-11T09:47:05.297Z,38.71
2017-06-11T09:48:14.928Z,38.79
2017-06-11T09:49:25.168Z,38.89
2017-06-11T09:50:35.395Z,38.6
2017-06-11T09:51:45.331Z,38.6
2017-06-11T09:52:56.480Z,38.5
2017-06-11T09:54:08.708Z,38.79
2017-06-11T09:55:18.928Z,38.5
2017-06-11T09:56:28.885Z,38.79
2017-06-11T09:57:38.503Z,38.87
2017-06-11T09:58:48.443Z,38.96
2017-06-11T09:59:58.046Z,38.67
2017-06-11T10:01:07.648Z,38.77
2017-06-11T10:02:17.868Z,38.67
2017-06-11T10:03:28.109Z,38.87
2017-06-11T10:04:38.336Z,38.67
2017-06-11T10:05:47.950Z,38.77
2017-06-11T10:06:58.179Z,38.87
2017-06-11T10:08:08.425Z,38.67
2017-06-11T10:09:18.663Z,38.87
2017-06-11T10:10:28.286Z,38.87
2017-06-11T10:11:38.216Z,38.87
2017-06-11T10:12:48.153Z,38.96
2017-06-11T10:13:58.374Z,38.96
2017-06-11T10:15:08.017Z,38.85
2017-06-11T10:16:17.945Z,39.04
2017-06-11T10:17:27.870Z,38.95
2017-06-11T10:18:38.105Z,39.04
2017-06-11T10:19:48.037Z,38.85
2017-06-11T10:20:57.657Z,38.85
2017-06-11T10:22:06.947Z,38.85
2017-06-11T10:23:16.568Z,38.85
2017-06-11T10:24:26.485Z,39.34
2017-06-11T10:25:36.719Z,39.04
2017-06-11T10:26:46.027Z,38.95
2017-06-11T10:27:55.320Z,39.14
2017-06-11T10:29:05.543Z,39.22
2017-06-11T10:30:15.768Z,39.24
2017-06-11T10:31:25.387Z,39.24
2017-06-11T10:32:35.324Z,39.14
2017-06-11T10:33:44.669Z,39.14
2017-06-11T10:34:54.588Z,39.04
2017-06-11T10:36:03.895Z,39.14
2017-06-11T10:37:13.808Z,39.12
2017-06-11T10:38:22.820Z,38.93
2017-06-11T10:39:33.051Z,38.85
2017-06-11T10:40:42.982Z,38.85
2017-06-11T10:41:52.663Z,38.95
2017-06-11T10:43:02.275Z,38.93
2017-06-11T10:44:12.183Z,39.03
2017-06-11T10:45:22.404Z,39.03
2017-06-11T10:46:32.314Z,39.03
2017-06-11T10:47:42.250Z,39.03
2017-06-11T10:48:51.869Z,38.73
2017-06-11T10:50:01.482Z,38.83
2017-06-11T10:51:11.704Z,38.93
2017-06-11T10:52:21.617Z,39.03
2017-06-11T10:53:31.530Z,38.93
2017-06-11T10:54:41.756Z,38.93
2017-06-11T10:55:51.700Z,39.03
2017-06-11T10:57:01.607Z,38.93
2017-06-11T10:58:11.520Z,38.93
2017-06-11T10:59:21.431Z,38.93
2017-06-11T11:00:31.041Z,39.12
2017-06-11T11:01:41.271Z,38.83
2017-06-11T11:02:51.191Z,38.83
2017-06-11T11:04:00.506Z,39.03
2017-06-11T11:05:10.434Z,39.03
2017-06-11T11:06:20.351Z,38.83
2017-06-11T11:07:30.265Z,38.73
2017-06-11T11:08:40.501Z,38.93
2017-06-11T11:09:50.734Z,38.93
2017-06-11T11:11:00.353Z,38.83
2017-06-11T11:12:10.272Z,38.73
2017-06-11T11:13:19.870Z,38.73
2017-06-11T11:14:29.776Z,38.83
2017-06-11T11:15:39.385Z,38.73
2017-06-11T11:16:48.988Z,38.83
2017-06-11T11:17:58.619Z,38.83
2017-06-11T11:19:08.850Z,38.83
2017-06-11T11:20:18.484Z,38.54
2017-06-11T11:21:28.393Z,38.64
2017-06-11T11:22:38.625Z,38.34
2017-06-11T11:23:48.543Z,38.44
2017-06-11T11:24:57.849Z,38.34
2017-06-11T11:26:08.086Z,38.34
2017-06-11T11:27:17.996Z,38.44
2017-06-11T11:28:28.219Z,38.64
2017-06-11T11:29:38.146Z,38.73
2017-06-11T11:30:48.063Z,38.64
2017-06-11T11:31:58.299Z,38.73
2017-06-11T11:33:07.924Z,38.64
2017-06-11T11:34:18.175Z,38.44
2017-06-11T11:35:27.789Z,38.54
2017-06-11T11:36:37.709Z,38.44
2017-06-11T11:37:47.918Z,38.54
2017-06-11T11:38:58.138Z,38.52
2017-06-11T11:40:07.426Z,38.54
2017-06-11T11:41:17.040Z,38.54
2017-06-11T11:42:26.942Z,38.54
2017-06-11T11:43:37.170Z,38.54
2017-06-11T11:44:47.085Z,38.44
2017-06-11T11:45:57.310Z,38.44
2017-06-11T11:47:06.934Z,38.42
2017-06-11T11:48:16.866Z,38.54
2017-06-11T11:49:26.489Z,38.44
2017-06-11T11:50:36.462Z,38.52
2017-06-11T11:51:46.369Z,38.42
2017-06-11T11:52:56.585Z,38.64
2017-06-11T11:54:06.812Z,38.64
2017-06-11T11:55:17.032Z,38.71
2017-06-11T11:56:26.971Z,38.81
2017-06-11T11:57:37.184Z,38.62
2017-06-11T11:58:47.100Z,38.54
2017-06-11T11:59:57.307Z,38.64
2017-06-11T12:01:07.222Z,38.83
2017-06-11T12:02:16.552Z,38.71
2017-06-11T12:03:25.851Z,38.64
2017-06-11T12:04:36.084Z,38.93
2017-06-11T12:05:45.716Z,38.44
2017-06-11T12:06:55.319Z,38.64
2017-06-11T12:08:05.547Z,38.34
2017-06-11T12:09:15.456Z,38.34
2017-06-11T12:10:25.377Z,38.25
2017-06-11T12:11:35.592Z,38.25
2017-06-11T12:12:45.207Z,38.34
2017-06-11T12:13:54.509Z,38.25
2017-06-11T12:15:04.429Z,38.25
2017-06-11T12:16:14.660Z,38.25
2017-06-11T12:17:24.571Z,38.06
2017-06-11T12:18:34.816Z,38.25
2017-06-11T12:19:44.737Z,38.15
2017-06-11T12:20:54.639Z,38.15
2017-06-11T12:22:04.259Z,38.15
2017-06-11T12:23:14.479Z,37.96
2017-06-11T12:24:24.701Z,37.86
2017-06-11T12:25:34.621Z,37.96
2017-06-11T12:26:44.223Z,37.86
2017-06-11T12:27:54.504Z,37.86
2017-06-11T12:29:04.129Z,37.86
2017-06-11T12:30:13.749Z,38.06
2017-06-11T12:31:23.964Z,37.86
2017-06-11T12:32:33.878Z,37.76
2017-06-11T12:33:43.484Z,37.86
2017-06-11T12:34:53.076Z,37.96
2017-06-11T12:36:02.989Z,37.96
2017-06-11T12:37:12.622Z,37.96
2017-06-11T12:38:22.222Z,38.06
2017-06-11T12:39:31.831Z,37.76
2017-06-11T12:40:41.124Z,38.15
2017-06-11T12:41:50.761Z,37.96
2017-06-11T12:43:00.097Z,38.06
2017-06-11T12:44:10.019Z,37.96
2017-06-11T12:45:19.939Z,37.86
2017-06-11T12:46:29.561Z,38.06
2017-06-11T12:47:39.162Z,38.06
2017-06-11T12:48:49.371Z,37.76
2017-06-11T12:49:59.278Z,37.96
2017-06-11T12:51:09.175Z,37.96
2017-06-11T12:52:18.782Z,37.86
2017-06-11T12:53:28.738Z,37.88
2017-06-11T12:54:38.346Z,37.76
2017-06-11T12:55:47.655Z,37.88
2017-06-11T12:56:57.583Z,37.86
2017-06-11T12:58:07.829Z,37.88
2017-06-11T12:59:17.122Z,37.86
2017-06-11T13:00:26.733Z,37.78
2017-06-11T13:01:36.337Z,37.88
2017-06-11T13:02:46.285Z,37.66
2017-06-11T13:03:56.501Z,37.66
2017-06-11T13:05:06.426Z,37.78
2017-06-11T13:06:16.350Z,37.78
2017-06-11T13:07:25.649Z,37.88
2017-06-11T13:08:35.270Z,37.78
2017-06-11T13:09:44.263Z,37.68
2017-06-11T13:10:54.211Z,37.78
2017-06-11T13:12:04.134Z,37.68
2017-06-11T13:13:13.750Z,37.76
2017-06-11T13:14:23.042Z,37.68
2017-06-11T13:15:33.283Z,37.59
2017-06-11T13:16:43.193Z,37.76
2017-06-11T13:17:53.095Z,37.59
2017-06-11T13:19:03.003Z,37.59
2017-06-11T13:20:12.631Z,37.78
2017-06-11T13:21:22.471Z,37.88
2017-06-11T13:22:32.381Z,37.57
2017-06-11T13:23:41.992Z,37.68
2017-06-11T13:24:51.609Z,37.68
2017-06-11T13:26:01.512Z,37.66
2017-06-11T13:27:11.435Z,37.57
2017-06-11T13:28:21.331Z,37.66
2017-06-11T13:29:31.638Z,37.68
2017-06-11T13:30:41.548Z,37.49
2017-06-11T13:31:51.455Z,37.68
2017-06-11T13:33:01.364Z,37.49
2017-06-11T13:34:11.608Z,37.68
2017-06-11T13:35:21.517Z,37.66
2017-06-11T13:36:31.113Z,37.47
2017-06-11T13:37:41.337Z,37.49
2017-06-11T13:38:51.567Z,37.49
2017-06-11T13:40:01.167Z,37.49
2017-06-11T13:41:11.377Z,37.49
2017-06-11T13:42:21.289Z,37.49
2017-06-11T13:43:30.890Z,37.39
2017-06-11T13:44:40.795Z,37.2
2017-06-11T13:45:50.406Z,37.3
2017-06-11T13:47:00.312Z,37.3
2017-06-11T13:48:10.222Z,37.39
2017-06-11T13:49:20.152Z,37.01
2017-06-11T13:50:29.452Z,37.39
2017-06-11T13:51:39.669Z,37.3
2017-06-11T13:52:49.881Z,37.39
2017-06-11T13:54:00.098Z,37.3
2017-06-11T13:55:10.320Z,37.3
2017-06-11T13:56:20.537Z,37.1
2017-06-11T13:57:30.741Z,37.2
2017-06-11T13:58:40.951Z,37.2
2017-06-11T13:59:50.243Z,37.3
2017-06-11T14:00:59.852Z,37.3
2017-06-11T14:02:09.803Z,37.2
2017-06-11T14:03:19.797Z,37.3
2017-06-11T14:04:30.064Z,37.2
2017-06-11T14:05:40.305Z,37.2
2017-06-11T14:06:50.638Z,37.39
2017-06-11T14:08:00.959Z,37.2
2017-06-11T14:09:11.531Z,37.49
2017-06-11T14:10:21.754Z,37.49
2017-06-11T14:11:31.937Z,37.49
2017-06-11T14:12:42.250Z,37.49
2017-06-11T14:13:52.152Z,37.49
2017-06-11T14:15:02.368Z,37.49
2017-06-11T14:16:12.301Z,37.49
2017-06-11T14:17:22.204Z,37.59
2017-06-11T14:18:32.112Z,37.59
2017-06-11T14:19:42.032Z,37.68
2017-06-11T14:20:51.954Z,37.68
2017-06-11T14:22:01.870Z,37.49
2017-06-11T14:23:11.786Z,37.49
2017-06-11T14:24:21.994Z,37.59
2017-06-11T14:25:31.901Z,37.59
2017-06-11T14:26:41.503Z,37.88
2017-06-11T14:27:51.429Z,37.78
2017-06-11T14:29:01.034Z,37.88
2017-06-11T14:30:10.952Z,37.88
2017-06-11T14:31:20.856Z,37.78
2017-06-11T14:32:30.766Z,37.88
2017-06-11T14:33:40.377Z,37.88
2017-06-11T14:34:50.290Z,37.88
2017-06-11T14:35:59.885Z,37.78
2017-06-11T14:37:09.602Z,37.88
2017-06-11T14:38:19.198Z,37.88
2017-06-11T14:39:29.404Z,37.78
2017-06-11T14:40:39.009Z,37.78
2017-06-11T14:41:48.923Z,37.88
2017-06-11T14:42:59.131Z,37.98
2017-06-11T14:44:09.033Z,37.78
2017-06-11T14:45:18.940Z,38.07
2017-06-11T14:46:28.541Z,37.98
2017-06-11T14:47:38.460Z,38.07
2017-06-11T14:48:48.670Z,38.07
2017-06-11T14:49:58.270Z,38.07
2017-06-11T14:51:08.490Z,37.98
2017-06-11T14:52:18.102Z,38.17
2017-06-11T14:53:27.695Z,37.78
2017-06-11T14:54:37.609Z,37.78
2017-06-11T14:55:47.509Z,37.68
2017-06-11T14:56:57.435Z,37.98
2017-06-11T14:58:07.350Z,37.98
2017-06-11T14:59:16.962Z,38.06
2017-06-11T15:00:27.254Z,37.98
2017-06-11T15:01:37.172Z,37.98
2017-06-11T15:02:46.777Z,37.86